sensor_id;sensor_type;location;lat;lon;timestamp;temperature;humidity
44695;DHT22;32845;59.422;17.930;2022-12-29T00:01:05;1.60;99.90
44695;DHT22;32845;59.422;17.930;2022-12-29T00:05:36;1.60;99.90
44695;DHT22;32845;59.422;17.930;2022-12-29T00:10:07;1.60;99.90
44695;DHT22;32845;59.422;17.930;2022-12-29T00:14:38;1.50;99.90
44695;DHT22;32845;59.422;17.930;2022-12-29T00:19:27;1.60;99.90
44695;DHT22;32845;59.422;17.930;2022-12-29T00:24:19;1.60;99.90
44695;DHT22;32845;59.422;17.930;2022-12-29T00:29:13;1.60;99.90
44695;DHT22;32845;59.422;17.930;2022-12-29T00:34:02;1.60;99.90
44695;DHT22;32845;59.422;17.930;2022-12-29T00:39:13;1.60;99.90
44695;DHT22;32845;59.422;17.930;2022-12-29T00:44:04;1.60;99.90
44695;DHT22;32845;59.422;17.930;2022-12-29T00:48:46;1.60;99.90
44695;DHT22;32845;59.422;17.930;2022-12-29T00:53:35;1.60;99.90
44695;DHT22;32845;59.422;17.930;2022-12-29T00:58:11;1.50;99.90
44695;DHT22;32845;59.422;17.930;2022-12-29T01:02:41;1.50;99.90
44695;DHT22;32845;59.422;17.930;2022-12-29T01:07:12;1.50;99.90
44695;DHT22;32845;59.422;17.930;2022-12-29T01:11:43;1.60;99.90
44695;DHT22;32845;59.422;17.930;2022-12-29T01:16:13;1.60;99.90
44695;DHT22;32845;59.422;17.930;2022-12-29T01:20:49;1.60;99.90
44695;DHT22;32845;59.422;17.930;2022-12-29T01:25:20;1.60;99.90
44695;DHT22;32845;59.422;17.930;2022-12-29T01:29:51;1.60;99.90
44695;DHT22;32845;59.422;17.930;2022-12-29T01:34:21;1.60;99.90
44695;DHT22;32845;59.422;17.930;2022-12-29T01:38:52;1.60;99.90
44695;DHT22;32845;59.422;17.930;2022-12-29T01:48:19;1.60;99.90
44695;DHT22;32845;59.422;17.930;2022-12-29T01:57:41;1.70;99.90
44695;DHT22;32845;59.422;17.930;2022-12-29T02:02:14;1.70;99.90
44695;DHT22;32845;59.422;17.930;2022-12-29T02:06:58;1.70;99.90
44695;DHT22;32845;59.422;17.930;2022-12-29T02:11:31;1.70;99.90
44695;DHT22;32845;59.422;17.930;2022-12-29T02:35:26;1.80;99.90
44695;DHT22;32845;59.422;17.930;2022-12-29T02:40:38;1.90;99.90
44695;DHT22;32845;59.422;17.930;2022-12-29T02:49:48;1.90;99.90
44695;DHT22;32845;59.422;17.930;2022-12-29T02:54:19;1.90;99.90
44695;DHT22;32845;59.422;17.930;2022-12-29T02:59:13;2.00;99.90
44695;DHT22;32845;59.422;17.930;2022-12-29T03:13:39;2.00;99.90
44695;DHT22;32845;59.422;17.930;2022-12-29T03:23:25;2.00;99.90
44695;DHT22;32845;59.422;17.930;2022-12-29T03:28:06;2.00;99.90
44695;DHT22;32845;59.422;17.930;2022-12-29T03:32:44;2.00;99.90
44695;DHT22;32845;59.422;17.930;2022-12-29T03:37:22;2.10;99.90
44695;DHT22;32845;59.422;17.930;2022-12-29T03:41:59;2.10;99.90
44695;DHT22;32845;59.422;17.930;2022-12-29T03:46:31;2.20;99.90
44695;DHT22;32845;59.422;17.930;2022-12-29T03:51:07;2.20;99.90
44695;DHT22;32845;59.422;17.930;2022-12-29T03:55:38;2.30;99.90
44695;DHT22;32845;59.422;17.930;2022-12-29T04:00:09;2.30;99.90
44695;DHT22;32845;59.422;17.930;2022-12-29T04:04:40;2.30;99.90
44695;DHT22;32845;59.422;17.930;2022-12-29T04:09:11;2.40;99.90
44695;DHT22;32845;59.422;17.930;2022-12-29T04:13:41;2.40;99.90
44695;DHT22;32845;59.422;17.930;2022-12-29T04:18:13;2.50;99.90
44695;DHT22;32845;59.422;17.930;2022-12-29T04:22:43;2.50;99.90
44695;DHT22;32845;59.422;17.930;2022-12-29T04:27:14;2.60;99.90
44695;DHT22;32845;59.422;17.930;2022-12-29T04:31:45;2.60;99.90
44695;DHT22;32845;59.422;17.930;2022-12-29T04:36:15;2.70;99.90
44695;DHT22;32845;59.422;17.930;2022-12-29T04:40:51;2.80;99.90
44695;DHT22;32845;59.422;17.930;2022-12-29T04:45:22;2.80;99.90
44695;DHT22;32845;59.422;17.930;2022-12-29T04:49:53;2.80;99.90
44695;DHT22;32845;59.422;17.930;2022-12-29T04:54:23;2.80;99.90
44695;DHT22;32845;59.422;17.930;2022-12-29T04:58:54;2.80;99.90
44695;DHT22;32845;59.422;17.930;2022-12-29T05:03:25;2.80;99.90
44695;DHT22;32845;59.422;17.930;2022-12-29T05:07:56;2.90;99.90
44695;DHT22;32845;59.422;17.930;2022-12-29T05:12:30;3.00;99.90
44695;DHT22;32845;59.422;17.930;2022-12-29T05:17:01;3.00;99.90
44695;DHT22;32845;59.422;17.930;2022-12-29T05:21:31;3.00;99.90
44695;DHT22;32845;59.422;17.930;2022-12-29T05:26:02;3.00;99.90
44695;DHT22;32845;59.422;17.930;2022-12-29T05:30:33;3.00;99.90
44695;DHT22;32845;59.422;17.930;2022-12-29T05:35:04;3.00;99.90
44695;DHT22;32845;59.422;17.930;2022-12-29T05:39:35;3.00;99.90
44695;DHT22;32845;59.422;17.930;2022-12-29T05:44:05;3.10;99.90
44695;DHT22;32845;59.422;17.930;2022-12-29T05:48:41;3.10;99.90
44695;DHT22;32845;59.422;17.930;2022-12-29T05:53:12;3.10;99.90
44695;DHT22;32845;59.422;17.930;2022-12-29T05:57:47;3.20;99.90
44695;DHT22;32845;59.422;17.930;2022-12-29T06:02:18;3.20;99.90
44695;DHT22;32845;59.422;17.930;2022-12-29T06:06:49;3.20;99.90
44695;DHT22;32845;59.422;17.930;2022-12-29T06:11:20;3.30;99.90
44695;DHT22;32845;59.422;17.930;2022-12-29T06:15:51;3.30;99.90
44695;DHT22;32845;59.422;17.930;2022-12-29T06:20:26;3.30;99.90
44695;DHT22;32845;59.422;17.930;2022-12-29T06:24:57;3.40;99.90
44695;DHT22;32845;59.422;17.930;2022-12-29T06:29:28;3.40;99.90
44695;DHT22;32845;59.422;17.930;2022-12-29T06:33:59;3.40;99.90
44695;DHT22;32845;59.422;17.930;2022-12-29T06:38:30;3.40;99.90
44695;DHT22;32845;59.422;17.930;2022-12-29T06:43:00;3.50;99.90
44695;DHT22;32845;59.422;17.930;2022-12-29T06:47:31;3.50;99.90
44695;DHT22;32845;59.422;17.930;2022-12-29T06:52:02;3.50;99.90
44695;DHT22;32845;59.422;17.930;2022-12-29T06:56:34;3.60;99.90
44695;DHT22;32845;59.422;17.930;2022-12-29T07:01:10;3.60;99.90
44695;DHT22;32845;59.422;17.930;2022-12-29T07:05:41;3.70;99.90
44695;DHT22;32845;59.422;17.930;2022-12-29T07:10:12;3.70;99.90
44695;DHT22;32845;59.422;17.930;2022-12-29T07:14:43;3.80;99.90
44695;DHT22;32845;59.422;17.930;2022-12-29T07:19:13;3.80;99.90
44695;DHT22;32845;59.422;17.930;2022-12-29T07:23:44;3.80;99.90
44695;DHT22;32845;59.422;17.930;2022-12-29T07:28:15;3.90;99.90
44695;DHT22;32845;59.422;17.930;2022-12-29T07:32:45;3.90;99.90
44695;DHT22;32845;59.422;17.930;2022-12-29T07:37:16;3.90;99.90
44695;DHT22;32845;59.422;17.930;2022-12-29T07:41:47;4.00;99.90
44695;DHT22;32845;59.422;17.930;2022-12-29T07:46:18;4.00;99.90
44695;DHT22;32845;59.422;17.930;2022-12-29T07:50:53;4.00;99.90
44695;DHT22;32845;59.422;17.930;2022-12-29T07:55:24;4.00;99.90
44695;DHT22;32845;59.422;17.930;2022-12-29T07:59:55;4.10;99.90
44695;DHT22;32845;59.422;17.930;2022-12-29T08:04:25;4.10;99.90
44695;DHT22;32845;59.422;17.930;2022-12-29T08:08:57;4.10;99.90
44695;DHT22;32845;59.422;17.930;2022-12-29T08:13:27;4.10;99.90
44695;DHT22;32845;59.422;17.930;2022-12-29T08:17:58;4.10;99.90
44695;DHT22;32845;59.422;17.930;2022-12-29T08:22:29;4.10;99.90
44695;DHT22;32845;59.422;17.930;2022-12-29T08:26:59;4.10;99.90
44695;DHT22;32845;59.422;17.930;2022-12-29T08:31:30;4.20;99.90
44695;DHT22;32845;59.422;17.930;2022-12-29T08:36:03;4.10;99.90
44695;DHT22;32845;59.422;17.930;2022-12-29T08:40:34;4.10;99.90
44695;DHT22;32845;59.422;17.930;2022-12-29T08:45:06;4.10;99.90
44695;DHT22;32845;59.422;17.930;2022-12-29T08:49:37;4.10;99.90
44695;DHT22;32845;59.422;17.930;2022-12-29T08:54:07;4.10;99.90
44695;DHT22;32845;59.422;17.930;2022-12-29T08:58:38;4.10;99.90
44695;DHT22;32845;59.422;17.930;2022-12-29T09:03:09;4.20;99.90
44695;DHT22;32845;59.422;17.930;2022-12-29T09:07:40;4.20;99.90
44695;DHT22;32845;59.422;17.930;2022-12-29T09:12:10;4.10;99.90
44695;DHT22;32845;59.422;17.930;2022-12-29T09:16:41;4.20;99.90
44695;DHT22;32845;59.422;17.930;2022-12-29T09:21:31;4.20;99.90
44695;DHT22;32845;59.422;17.930;2022-12-29T09:26:02;4.20;99.90
44695;DHT22;32845;59.422;17.930;2022-12-29T09:30:33;4.20;99.90
44695;DHT22;32845;59.422;17.930;2022-12-29T09:35:04;4.30;99.90
44695;DHT22;32845;59.422;17.930;2022-12-29T09:39:40;4.30;99.90
44695;DHT22;32845;59.422;17.930;2022-12-29T09:44:29;4.40;99.90
44695;DHT22;32845;59.422;17.930;2022-12-29T09:53:57;4.50;99.90
44695;DHT22;32845;59.422;17.930;2022-12-29T10:07:50;4.60;99.90
44695;DHT22;32845;59.422;17.930;2022-12-29T10:12:56;4.60;99.90
44695;DHT22;32845;59.422;17.930;2022-12-29T10:17:44;4.60;99.90
44695;DHT22;32845;59.422;17.930;2022-12-29T10:27:15;4.70;99.90
44695;DHT22;32845;59.422;17.930;2022-12-29T10:32:02;4.70;99.90
44695;DHT22;32845;59.422;17.930;2022-12-29T10:36:39;4.80;99.90
44695;DHT22;32845;59.422;17.930;2022-12-29T10:41:17;4.80;99.90
44695;DHT22;32845;59.422;17.930;2022-12-29T10:45:50;4.80;99.90
44695;DHT22;32845;59.422;17.930;2022-12-29T10:50:22;4.80;99.90
44695;DHT22;32845;59.422;17.930;2022-12-29T10:55:03;4.90;99.90
44695;DHT22;32845;59.422;17.930;2022-12-29T10:59:37;4.90;99.90
44695;DHT22;32845;59.422;17.930;2022-12-29T11:09:14;5.00;99.90
44695;DHT22;32845;59.422;17.930;2022-12-29T11:13:51;5.00;99.90
44695;DHT22;32845;59.422;17.930;2022-12-29T11:18:32;5.00;99.90
44695;DHT22;32845;59.422;17.930;2022-12-29T11:23:05;5.00;99.90
44695;DHT22;32845;59.422;17.930;2022-12-29T11:27:36;5.00;99.90
44695;DHT22;32845;59.422;17.930;2022-12-29T11:32:16;5.10;99.90
44695;DHT22;32845;59.422;17.930;2022-12-29T11:36:48;5.10;99.90
44695;DHT22;32845;59.422;17.930;2022-12-29T11:41:30;5.10;99.90
44695;DHT22;32845;59.422;17.930;2022-12-29T11:46:02;5.20;99.90
44695;DHT22;32845;59.422;17.930;2022-12-29T11:50:37;5.20;99.90
44695;DHT22;32845;59.422;17.930;2022-12-29T11:55:21;5.20;99.90
44695;DHT22;32845;59.422;17.930;2022-12-29T11:59:55;5.30;99.90
44695;DHT22;32845;59.422;17.930;2022-12-29T12:04:35;5.30;99.90
44695;DHT22;32845;59.422;17.930;2022-12-29T12:09:14;5.30;99.90
44695;DHT22;32845;59.422;17.930;2022-12-29T12:18:34;5.30;99.90
44695;DHT22;32845;59.422;17.930;2022-12-29T12:28:20;5.40;99.90
44695;DHT22;32845;59.422;17.930;2022-12-29T12:33:02;5.40;99.90
44695;DHT22;32845;59.422;17.930;2022-12-29T12:37:52;5.50;99.90
44695;DHT22;32845;59.422;17.930;2022-12-29T12:47:53;5.40;99.90
44695;DHT22;32845;59.422;17.930;2022-12-29T12:52:48;5.50;99.90
44695;DHT22;32845;59.422;17.930;2022-12-29T13:27:20;5.50;99.90
44695;DHT22;32845;59.422;17.930;2022-12-29T13:36:37;5.50;99.90
44695;DHT22;32845;59.422;17.930;2022-12-29T13:41:33;5.50;99.90
44695;DHT22;32845;59.422;17.930;2022-12-29T13:46:12;5.50;99.90
44695;DHT22;32845;59.422;17.930;2022-12-29T13:50:48;5.50;99.90
44695;DHT22;32845;59.422;17.930;2022-12-29T14:00:16;5.50;99.90
44695;DHT22;32845;59.422;17.930;2022-12-29T14:05:26;5.50;99.90
44695;DHT22;32845;59.422;17.930;2022-12-29T14:09:57;5.50;99.90
44695;DHT22;32845;59.422;17.930;2022-12-29T14:14:29;5.50;99.90
44695;DHT22;32845;59.422;17.930;2022-12-29T14:19:10;5.60;99.90
44695;DHT22;32845;59.422;17.930;2022-12-29T14:23:50;5.50;99.90
44695;DHT22;32845;59.422;17.930;2022-12-29T14:28:29;5.60;99.90
44695;DHT22;32845;59.422;17.930;2022-12-29T14:33:02;5.60;99.90
44695;DHT22;32845;59.422;17.930;2022-12-29T14:37:36;5.60;99.90
44695;DHT22;32845;59.422;17.930;2022-12-29T14:51:31;5.70;99.90
44695;DHT22;32845;59.422;17.930;2022-12-29T14:56:04;5.70;99.90
44695;DHT22;32845;59.422;17.930;2022-12-29T15:00:36;5.70;99.90
44695;DHT22;32845;59.422;17.930;2022-12-29T15:05:27;5.70;99.90
44695;DHT22;32845;59.422;17.930;2022-12-29T15:10:14;5.70;99.90
44695;DHT22;32845;59.422;17.930;2022-12-29T15:14:56;5.80;99.90
44695;DHT22;32845;59.422;17.930;2022-12-29T15:19:28;5.80;99.90
44695;DHT22;32845;59.422;17.930;2022-12-29T15:23:59;5.80;99.90
44695;DHT22;32845;59.422;17.930;2022-12-29T15:28:44;5.90;99.90
44695;DHT22;32845;59.422;17.930;2022-12-29T15:33:21;5.90;99.90
44695;DHT22;32845;59.422;17.930;2022-12-29T15:37:52;5.90;99.90
44695;DHT22;32845;59.422;17.930;2022-12-29T15:47:03;5.90;99.90
44695;DHT22;32845;59.422;17.930;2022-12-29T15:51:38;5.90;99.90
44695;DHT22;32845;59.422;17.930;2022-12-29T15:56:10;5.90;99.90
44695;DHT22;32845;59.422;17.930;2022-12-29T16:01:01;5.90;99.90
44695;DHT22;32845;59.422;17.930;2022-12-29T16:05:37;5.90;99.90
44695;DHT22;32845;59.422;17.930;2022-12-29T16:10:36;5.90;99.90
44695;DHT22;32845;59.422;17.930;2022-12-29T16:15:12;5.90;99.90
44695;DHT22;32845;59.422;17.930;2022-12-29T16:19:50;5.90;99.90
44695;DHT22;32845;59.422;17.930;2022-12-29T16:24:25;5.90;99.90
44695;DHT22;32845;59.422;17.930;2022-12-29T16:28:59;6.00;99.90
44695;DHT22;32845;59.422;17.930;2022-12-29T16:33:54;5.90;99.90
44695;DHT22;32845;59.422;17.930;2022-12-29T16:38:31;6.00;99.90
44695;DHT22;32845;59.422;17.930;2022-12-29T16:43:04;6.00;99.90
44695;DHT22;32845;59.422;17.930;2022-12-29T16:47:34;6.00;99.90
44695;DHT22;32845;59.422;17.930;2022-12-29T16:52:28;6.00;99.90
44695;DHT22;32845;59.422;17.930;2022-12-29T16:57:03;6.00;99.90
44695;DHT22;32845;59.422;17.930;2022-12-29T17:01:36;6.00;99.90
44695;DHT22;32845;59.422;17.930;2022-12-29T17:06:14;6.00;99.90
44695;DHT22;32845;59.422;17.930;2022-12-29T17:10:46;6.00;99.90
44695;DHT22;32845;59.422;17.930;2022-12-29T17:15:35;6.00;99.90
44695;DHT22;32845;59.422;17.930;2022-12-29T17:20:27;6.00;99.90
44695;DHT22;32845;59.422;17.930;2022-12-29T17:25:00;6.00;99.90
44695;DHT22;32845;59.422;17.930;2022-12-29T17:29:39;6.10;99.90
44695;DHT22;32845;59.422;17.930;2022-12-29T17:34:12;6.00;99.90
44695;DHT22;32845;59.422;17.930;2022-12-29T17:38:43;6.10;99.90
44695;DHT22;32845;59.422;17.930;2022-12-29T17:43:15;6.10;99.90
44695;DHT22;32845;59.422;17.930;2022-12-29T17:47:51;6.10;99.90
44695;DHT22;32845;59.422;17.930;2022-12-29T17:52:22;6.10;99.90
44695;DHT22;32845;59.422;17.930;2022-12-29T17:56:52;6.10;99.90
44695;DHT22;32845;59.422;17.930;2022-12-29T18:01:28;6.10;99.90
44695;DHT22;32845;59.422;17.930;2022-12-29T18:06:01;6.00;99.90
44695;DHT22;32845;59.422;17.930;2022-12-29T18:10:35;6.10;99.90
44695;DHT22;32845;59.422;17.930;2022-12-29T18:15:15;6.10;99.90
44695;DHT22;32845;59.422;17.930;2022-12-29T18:19:46;6.10;99.90
44695;DHT22;32845;59.422;17.930;2022-12-29T18:24:17;6.00;99.90
44695;DHT22;32845;59.422;17.930;2022-12-29T18:28:47;6.00;99.90
44695;DHT22;32845;59.422;17.930;2022-12-29T18:33:20;6.00;99.90
44695;DHT22;32845;59.422;17.930;2022-12-29T18:37:51;6.00;99.90
44695;DHT22;32845;59.422;17.930;2022-12-29T18:42:22;6.00;99.90
44695;DHT22;32845;59.422;17.930;2022-12-29T18:46:52;6.00;99.90
44695;DHT22;32845;59.422;17.930;2022-12-29T18:51:33;6.00;99.90
44695;DHT22;32845;59.422;17.930;2022-12-29T18:56:03;6.00;99.90
44695;DHT22;32845;59.422;17.930;2022-12-29T19:00:37;6.00;99.90
44695;DHT22;32845;59.422;17.930;2022-12-29T19:05:29;6.00;99.90
44695;DHT22;32845;59.422;17.930;2022-12-29T19:10:00;6.00;99.90
44695;DHT22;32845;59.422;17.930;2022-12-29T19:14:31;6.00;99.90
44695;DHT22;32845;59.422;17.930;2022-12-29T19:19:01;6.00;99.90
44695;DHT22;32845;59.422;17.930;2022-12-29T19:23:33;6.00;99.90
44695;DHT22;32845;59.422;17.930;2022-12-29T19:28:05;5.90;99.90
44695;DHT22;32845;59.422;17.930;2022-12-29T19:32:36;5.90;99.90
44695;DHT22;32845;59.422;17.930;2022-12-29T19:37:07;6.00;99.90
44695;DHT22;32845;59.422;17.930;2022-12-29T19:41:38;6.00;99.90
44695;DHT22;32845;59.422;17.930;2022-12-29T19:46:10;6.00;99.90
44695;DHT22;32845;59.422;17.930;2022-12-29T19:50:41;6.00;99.90
44695;DHT22;32845;59.422;17.930;2022-12-29T19:55:14;6.00;99.90
44695;DHT22;32845;59.422;17.930;2022-12-29T19:59:45;6.00;99.90
44695;DHT22;32845;59.422;17.930;2022-12-29T20:04:16;6.00;99.90
44695;DHT22;32845;59.422;17.930;2022-12-29T20:08:52;6.00;99.90
44695;DHT22;32845;59.422;17.930;2022-12-29T20:13:24;6.00;99.90
44695;DHT22;32845;59.422;17.930;2022-12-29T20:17:55;6.00;99.90
44695;DHT22;32845;59.422;17.930;2022-12-29T20:22:25;6.00;99.90
44695;DHT22;32845;59.422;17.930;2022-12-29T20:26:56;6.10;99.90
44695;DHT22;32845;59.422;17.930;2022-12-29T20:31:31;6.00;99.90
44695;DHT22;32845;59.422;17.930;2022-12-29T20:36:12;6.00;99.90
44695;DHT22;32845;59.422;17.930;2022-12-29T20:40:44;6.10;99.90
44695;DHT22;32845;59.422;17.930;2022-12-29T20:45:18;6.10;99.90
44695;DHT22;32845;59.422;17.930;2022-12-29T20:49:48;6.00;99.90
44695;DHT22;32845;59.422;17.930;2022-12-29T20:54:20;6.00;99.90
44695;DHT22;32845;59.422;17.930;2022-12-29T20:58:52;6.00;99.90
44695;DHT22;32845;59.422;17.930;2022-12-29T21:03:23;6.00;99.90
44695;DHT22;32845;59.422;17.930;2022-12-29T21:07:55;6.00;99.90
44695;DHT22;32845;59.422;17.930;2022-12-29T21:12:28;6.00;99.90
44695;DHT22;32845;59.422;17.930;2022-12-29T21:16:59;6.00;99.90
44695;DHT22;32845;59.422;17.930;2022-12-29T21:21:30;5.90;99.90
44695;DHT22;32845;59.422;17.930;2022-12-29T21:26:01;5.90;99.90
44695;DHT22;32845;59.422;17.930;2022-12-29T21:30:32;5.90;99.90
44695;DHT22;32845;59.422;17.930;2022-12-29T21:35:03;5.90;99.90
44695;DHT22;32845;59.422;17.930;2022-12-29T21:39:39;5.90;99.90
44695;DHT22;32845;59.422;17.930;2022-12-29T21:44:10;5.90;99.90
44695;DHT22;32845;59.422;17.930;2022-12-29T21:49:00;5.90;99.90
44695;DHT22;32845;59.422;17.930;2022-12-29T21:53:33;5.90;99.90
44695;DHT22;32845;59.422;17.930;2022-12-29T21:58:15;5.90;99.90
44695;DHT22;32845;59.422;17.930;2022-12-29T22:03:04;5.90;99.90
44695;DHT22;32845;59.422;17.930;2022-12-29T22:07:53;5.90;99.90
44695;DHT22;32845;59.422;17.930;2022-12-29T22:12:43;5.90;99.90
44695;DHT22;32845;59.422;17.930;2022-12-29T22:17:32;5.90;99.90
44695;DHT22;32845;59.422;17.930;2022-12-29T22:22:03;5.90;99.90
44695;DHT22;32845;59.422;17.930;2022-12-29T22:26:33;5.90;99.90
44695;DHT22;32845;59.422;17.930;2022-12-29T22:31:06;5.90;99.90
44695;DHT22;32845;59.422;17.930;2022-12-29T22:35:36;5.90;99.90
44695;DHT22;32845;59.422;17.930;2022-12-29T22:40:08;5.90;99.90
44695;DHT22;32845;59.422;17.930;2022-12-29T22:44:40;5.90;99.90
44695;DHT22;32845;59.422;17.930;2022-12-29T22:49:11;5.90;99.90
44695;DHT22;32845;59.422;17.930;2022-12-29T22:53:41;5.90;99.90
44695;DHT22;32845;59.422;17.930;2022-12-29T22:58:12;5.80;99.90
44695;DHT22;32845;59.422;17.930;2022-12-29T23:02:43;5.80;99.90
44695;DHT22;32845;59.422;17.930;2022-12-29T23:07:14;5.80;99.90
44695;DHT22;32845;59.422;17.930;2022-12-29T23:11:45;5.80;99.90
44695;DHT22;32845;59.422;17.930;2022-12-29T23:16:16;5.70;99.90
44695;DHT22;32845;59.422;17.930;2022-12-29T23:20:47;5.70;99.90
44695;DHT22;32845;59.422;17.930;2022-12-29T23:25:18;5.70;99.90
44695;DHT22;32845;59.422;17.930;2022-12-29T23:29:49;5.60;99.90
44695;DHT22;32845;59.422;17.930;2022-12-29T23:34:20;5.60;99.90
44695;DHT22;32845;59.422;17.930;2022-12-29T23:38:51;5.60;99.90
44695;DHT22;32845;59.422;17.930;2022-12-29T23:43:21;5.50;99.90
44695;DHT22;32845;59.422;17.930;2022-12-29T23:47:52;5.50;99.90
44695;DHT22;32845;59.422;17.930;2022-12-29T23:52:23;5.50;99.90
44695;DHT22;32845;59.422;17.930;2022-12-29T23:56:53;5.40;99.90
